Time;durP1;ratioP1;P1;durP2;ratioP2;P2;SDS_P1;SDS_P2;PMS_P1;PMS_P2;Temp;Humidity;BMP_temperature;BMP_pressure;BME280_temperature;BME280_humidity;BME280_pressure;Samples;Min_cycle;Max_cycle;Signal;HPM_P1;HPM_P2
2022/03/12 00:00:43;;;;;;;8.80;5.75;;;11.60;44.10;;;;;;5001135;28;20112;-79
2022/03/12 00:03:14;;;;;;;9.85;5.85;;;11.60;43.90;;;;;;5010044;28;20025;-80
2022/03/12 00:05:54;;;;;;;12.13;6.40;;;11.60;43.40;;;;;;5002029;28;20045;-79
2022/03/12 00:08:21;;;;;;;10.45;5.90;;;11.50;43.40;;;;;;5004347;28;20034;-79
2022/03/12 00:10:50;;;;;;;10.85;5.45;;;11.60;43.50;;;;;;5008801;28;20041;-79
2022/03/12 00:13:19;;;;;;;8.85;5.90;;;11.50;43.50;;;;;;4998684;28;20030;-79
2022/03/12 00:15:47;;;;;;;9.38;6.18;;;11.50;43.40;;;;;;4996425;28;20033;-79
2022/03/12 00:18:17;;;;;;;10.10;5.30;;;11.60;44.20;;;;;;4995106;28;20030;-79
2022/03/12 00:20:44;;;;;;;9.52;5.65;;;11.60;43.80;;;;;;5007465;28;20042;-79
2022/03/12 00:23:11;;;;;;;11.18;5.93;;;11.60;43.90;;;;;;5006421;28;20735;-79
2022/03/12 00:25:42;;;;;;;10.40;6.35;;;11.60;43.40;;;;;;5004651;28;20056;-80
2022/03/12 00:28:08;;;;;;;12.07;5.85;;;11.60;43.30;;;;;;5006616;28;20062;-80
2022/03/12 00:30:36;;;;;;;12.70;6.07;;;11.60;43.30;;;;;;5000922;28;20139;-80
2022/03/12 00:33:02;;;;;;;14.85;6.40;;;11.60;43.50;;;;;;5005893;28;20034;-80
2022/03/12 00:35:27;;;;;;;10.68;5.97;;;11.60;43.20;;;;;;5010316;28;20485;-80
2022/03/12 00:37:53;;;;;;;10.07;5.95;;;11.60;43.20;;;;;;5010139;28;20034;-80
2022/03/12 00:40:21;;;;;;;8.60;5.88;;;11.70;43.10;;;;;;4997665;28;20121;-79
2022/03/12 00:42:48;;;;;;;13.10;6.10;;;11.60;42.90;;;;;;4996507;28;20022;-80
2022/03/12 00:45:13;;;;;;;9.10;6.13;;;11.70;43.00;;;;;;4995867;28;20065;-79
2022/03/12 00:47:39;;;;;;;9.82;5.65;;;11.60;43.10;;;;;;4996010;28;20058;-79
2022/03/12 00:50:06;;;;;;;10.77;6.05;;;11.70;43.20;;;;;;4996278;28;20038;-79
2022/03/12 00:52:31;;;;;;;8.63;5.90;;;11.70;43.60;;;;;;4996409;28;20394;-79
2022/03/12 00:54:57;;;;;;;11.23;6.30;;;11.70;43.50;;;;;;4996363;28;20031;-79
2022/03/12 00:57:23;;;;;;;8.88;5.85;;;11.70;43.30;;;;;;4996100;28;20023;-79
2022/03/12 00:59:48;;;;;;;10.23;5.47;;;11.60;43.50;;;;;;4996430;28;20053;-79
2022/03/12 01:02:15;;;;;;;6.97;5.63;;;11.60;44.10;;;;;;4996313;28;20434;-80
2022/03/12 01:04:42;;;;;;;7.72;5.78;;;11.60;43.80;;;;;;4996150;28;20026;-80
2022/03/12 01:07:10;;;;;;;8.45;5.55;;;11.60;43.60;;;;;;4995549;28;20030;-79
2022/03/12 01:09:36;;;;;;;11.65;6.22;;;11.60;43.80;;;;;;4995917;28;20386;-80
2022/03/12 01:12:01;;;;;;;8.77;6.07;;;11.60;44.00;;;;;;4996250;28;20034;-80
2022/03/12 01:14:27;;;;;;;11.18;5.78;;;11.70;44.40;;;;;;4995574;28;20031;-79
2022/03/12 01:16:58;;;;;;;10.65;6.20;;;11.70;44.00;;;;;;4995556;28;20106;-78
2022/03/12 01:19:24;;;;;;;10.52;5.72;;;11.60;44.00;;;;;;4995946;28;20030;-80
2022/03/12 01:21:49;;;;;;;10.15;6.10;;;11.60;44.00;;;;;;4995287;28;20497;-79
2022/03/12 01:24:15;;;;;;;8.10;5.60;;;11.60;44.00;;;;;;4993309;28;20169;-82
2022/03/12 01:26:40;;;;;;;8.00;5.57;;;11.60;44.40;;;;;;4995584;28;20026;-82
2022/03/12 01:29:07;;;;;;;9.95;5.55;;;11.70;45.20;;;;;;4996003;28;20053;-82
2022/03/12 01:31:34;;;;;;;11.23;6.13;;;11.70;44.50;;;;;;4995683;28;20162;-82
2022/03/12 01:34:00;;;;;;;11.63;5.65;;;11.60;44.30;;;;;;4995368;28;20494;-83
2022/03/12 01:36:26;;;;;;;10.90;6.57;;;11.70;44.40;;;;;;4994292;28;20516;-82
2022/03/12 01:38:54;;;;;;;10.75;5.93;;;11.70;44.30;;;;;;4995032;28;20030;-82
2022/03/12 01:41:24;;;;;;;9.15;5.53;;;11.70;44.80;;;;;;5014924;28;20385;-82
2022/03/12 01:43:53;;;;;;;11.07;6.32;;;11.80;45.00;;;;;;5014892;28;20080;-81
2022/03/12 01:46:24;;;;;;;11.93;6.07;;;11.90;44.40;;;;;;5014972;28;20088;-81
2022/03/12 01:48:51;;;;;;;12.77;6.40;;;11.90;44.60;;;;;;5004792;28;20076;-81
2022/03/12 01:51:17;;;;;;;9.93;6.68;;;11.90;44.20;;;;;;5014687;28;20105;-82
2022/03/12 01:53:43;;;;;;;11.32;5.53;;;11.90;44.20;;;;;;5014828;28;20489;-83
2022/03/12 01:56:09;;;;;;;12.50;6.70;;;11.90;44.20;;;;;;5015022;28;20045;-82
2022/03/12 01:58:36;;;;;;;10.45;6.15;;;11.90;44.20;;;;;;5014251;28;20484;-82
2022/03/12 02:01:02;;;;;;;10.10;6.40;;;11.90;44.30;;;;;;5014773;28;20050;-82
2022/03/12 02:03:29;;;;;;;9.88;5.85;;;11.80;44.30;;;;;;5014816;28;20026;-83
2022/03/12 02:05:57;;;;;;;12.30;6.05;;;11.80;44.80;;;;;;5014386;28;20037;-82
2022/03/12 02:08:23;;;;;;;14.18;6.53;;;11.90;45.30;;;;;;5014243;28;20033;-83
2022/03/12 02:10:50;;;;;;;9.55;5.72;;;11.90;45.60;;;;;;5014365;28;20030;-83
2022/03/12 02:13:17;;;;;;;10.73;6.10;;;11.90;46.10;;;;;;5014182;28;20034;-84
2022/03/12 02:18:13;;;;;;;10.70;6.35;;;11.90;46.00;;;;;;4978524;28;20069;-83
2022/03/12 02:20:40;;;;;;;9.25;5.38;;;11.80;46.30;;;;;;4992671;28;20026;-82
2022/03/12 02:23:11;;;;;;;9.25;6.18;;;11.80;47.10;;;;;;4987979;28;20508;-82
2022/03/12 02:25:37;;;;;;;7.80;5.47;;;11.90;48.20;;;;;;4991605;28;20418;-83
2022/03/12 02:28:14;;;;;;;12.20;6.85;;;11.90;48.10;;;;;;4984330;28;20078;-83
2022/03/12 02:30:45;;;;;;;11.48;6.82;;;11.80;47.10;;;;;;4989725;28;20439;-82
2022/03/12 02:33:13;;;;;;;11.95;6.57;;;11.80;47.70;;;;;;4981102;28;20476;-82
2022/03/12 02:35:38;;;;;;;11.13;7.30;;;11.80;48.20;;;;;;4992255;28;20022;-82
2022/03/12 02:38:05;;;;;;;11.27;6.15;;;11.80;47.60;;;;;;4986253;28;20034;-82
2022/03/12 02:40:34;;;;;;;11.68;6.45;;;11.70;48.10;;;;;;4972395;28;20081;-82
2022/03/12 02:43:01;;;;;;;9.65;6.25;;;11.70;48.60;;;;;;4984068;28;20019;-83
2022/03/12 02:45:29;;;;;;;10.98;6.15;;;11.70;48.30;;;;;;4977683;28;20030;-82
2022/03/12 02:47:55;;;;;;;14.95;6.45;;;11.70;48.00;;;;;;4978379;28;20034;-83
2022/03/12 02:50:23;;;;;;;14.77;6.88;;;11.70;48.50;;;;;;4990199;28;20069;-82
2022/03/12 02:52:49;;;;;;;11.20;6.00;;;11.70;49.00;;;;;;4991628;28;20379;-82
2022/03/12 02:55:21;;;;;;;10.00;6.40;;;11.70;48.90;;;;;;4977750;28;20041;-82
2022/03/12 02:57:47;;;;;;;10.35;7.15;;;11.70;48.20;;;;;;4976214;28;20031;-82
2022/03/12 03:00:14;;;;;;;11.27;6.57;;;11.60;49.10;;;;;;4980258;28;20094;-82
2022/03/12 03:02:40;;;;;;;10.10;6.57;;;11.60;48.50;;;;;;4970538;28;20490;-82
2022/03/12 03:05:38;;;;;;;12.25;6.97;;;11.60;48.70;;;;;;4982624;28;20035;-83
2022/03/12 03:08:09;;;;;;;11.80;7.15;;;11.60;48.50;;;;;;4991003;28;20065;-82
2022/03/12 03:10:37;;;;;;;12.65;6.70;;;11.60;49.20;;;;;;4984567;28;20031;-82
2022/03/12 03:13:30;;;;;;;11.57;6.55;;;11.60;48.90;;;;;;4979526;28;20031;-82
2022/03/12 03:15:59;;;;;;;11.73;7.03;;;11.60;48.70;;;;;;4976485;28;20110;-81
2022/03/12 03:18:29;;;;;;;9.13;6.60;;;11.70;49.00;;;;;;4980736;28;20462;-81
2022/03/12 03:20:56;;;;;;;11.18;6.40;;;11.80;49.20;;;;;;4986497;28;20045;-82
2022/03/12 03:23:24;;;;;;;10.52;6.55;;;11.80;48.90;;;;;;4991160;28;20034;-82
2022/03/12 03:25:52;;;;;;;11.25;6.68;;;11.80;48.60;;;;;;4988344;28;20171;-82
2022/03/12 03:28:18;;;;;;;10.43;7.22;;;11.80;48.40;;;;;;4990223;28;20719;-82
2022/03/12 03:30:44;;;;;;;11.68;7.25;;;11.80;48.80;;;;;;4983593;28;20038;-82
2022/03/12 03:33:16;;;;;;;9.93;7.30;;;11.80;49.00;;;;;;4976128;28;20034;-82
2022/03/12 03:35:43;;;;;;;12.40;7.03;;;11.80;48.80;;;;;;4979893;28;20031;-82
2022/03/12 03:38:11;;;;;;;11.38;7.88;;;11.80;48.80;;;;;;4975897;28;20042;-81
2022/03/12 03:40:37;;;;;;;9.93;6.85;;;11.80;49.00;;;;;;4979729;28;20026;-82
2022/03/12 03:43:06;;;;;;;11.05;7.10;;;11.80;49.10;;;;;;4979943;28;20035;-82
2022/03/12 03:45:31;;;;;;;10.93;7.53;;;11.70;49.00;;;;;;4972398;28;20059;-81
2022/03/12 03:48:03;;;;;;;12.90;7.32;;;11.80;49.30;;;;;;4991375;23;20059;-81
2022/03/12 03:50:29;;;;;;;14.90;8.18;;;11.70;49.10;;;;;;4988171;28;20111;-81
2022/03/12 03:53:03;;;;;;;15.55;8.10;;;11.80;49.60;;;;;;4991911;28;20479;-81
2022/03/12 03:55:42;;;;;;;14.18;7.95;;;11.70;49.10;;;;;;4992708;28;20035;-81
2022/03/12 03:58:15;;;;;;;13.68;7.50;;;11.60;49.30;;;;;;4991262;28;20462;-81
2022/03/12 04:00:58;;;;;;;12.23;7.40;;;11.60;49.60;;;;;;4992478;28;20030;-81
2022/03/12 04:03:32;;;;;;;12.60;8.13;;;11.70;49.40;;;;;;4992394;28;20023;-82
2022/03/12 04:06:04;;;;;;;12.38;8.02;;;11.70;49.30;;;;;;5053538;23;20085;-82
2022/03/12 04:08:31;;;;;;;11.40;7.80;;;11.70;49.20;;;;;;5012027;28;20493;-82
2022/03/12 04:10:57;;;;;;;18.92;8.45;;;11.70;49.00;;;;;;5012621;28;20389;-82
2022/03/12 04:13:25;;;;;;;14.23;7.60;;;11.60;49.20;;;;;;5012406;28;20026;-82
2022/03/12 04:15:52;;;;;;;14.77;8.20;;;11.60;49.70;;;;;;5012351;28;20112;-82
2022/03/12 04:18:21;;;;;;;12.10;8.13;;;11.70;49.90;;;;;;5011938;28;20065;-82
2022/03/12 04:20:47;;;;;;;14.15;8.38;;;11.60;49.70;;;;;;5012441;28;20029;-82
2022/03/12 04:23:29;;;;;;;10.38;7.50;;;11.70;49.80;;;;;;5011979;28;20049;-82
2022/03/12 04:25:56;;;;;;;11.75;7.43;;;11.60;50.10;;;;;;5011559;28;20084;-82
2022/03/12 04:28:23;;;;;;;13.90;8.60;;;11.70;50.60;;;;;;5008724;28;20022;-82
2022/03/12 04:30:49;;;;;;;18.35;9.13;;;11.70;50.50;;;;;;5012315;28;20473;-82
2022/03/12 04:33:19;;;;;;;14.15;8.57;;;11.70;50.50;;;;;;5011952;28;20026;-83
2022/03/12 04:35:46;;;;;;;13.02;7.97;;;11.70;50.50;;;;;;5012369;28;20037;-83
2022/03/12 04:38:13;;;;;;;11.98;8.38;;;11.70;51.00;;;;;;5011824;28;20101;-83
2022/03/12 04:40:41;;;;;;;14.45;8.75;;;11.60;50.80;;;;;;5011814;28;20026;-82
2022/03/12 04:43:09;;;;;;;14.40;7.75;;;11.60;51.40;;;;;;5011400;28;20080;-82
2022/03/12 04:45:36;;;;;;;12.23;7.93;;;11.70;51.40;;;;;;5012260;28;20026;-83
2022/03/12 04:48:02;;;;;;;13.23;8.35;;;11.80;51.40;;;;;;5011489;28;20057;-82
2022/03/12 04:50:28;;;;;;;15.75;8.88;;;11.70;51.10;;;;;;5011776;28;20048;-81
2022/03/12 04:52:58;;;;;;;15.20;9.10;;;11.80;51.60;;;;;;5011296;28;20044;-81
2022/03/12 04:55:25;;;;;;;17.27;10.38;;;11.70;51.90;;;;;;5010944;28;20038;-85
2022/03/12 04:57:52;;;;;;;22.23;11.60;;;11.80;51.90;;;;;;5012081;28;20173;-85
2022/03/12 05:00:26;;;;;;;24.67;13.85;;;11.70;52.00;;;;;;5012304;28;20103;-85
2022/03/12 05:03:19;;;;;;;26.17;13.52;;;11.70;52.10;;;;;;5011741;28;20108;-85
2022/03/12 05:05:48;;;;;;;19.30;10.73;;;11.60;52.20;;;;;;5008948;28;20049;-85
2022/03/12 05:08:25;;;;;;;16.55;9.18;;;11.60;52.60;;;;;;5011899;28;20119;-85
2022/03/12 05:10:53;;;;;;;17.08;9.18;;;11.60;52.80;;;;;;5013955;28;20079;-86
2022/03/12 05:13:22;;;;;;;12.38;8.38;;;11.60;52.60;;;;;;5016115;28;20099;-86
2022/03/12 05:15:53;;;;;;;14.23;8.93;;;11.50;52.80;;;;;;5016154;28;20038;-87
2022/03/12 05:18:21;;;;;;;15.68;8.23;;;11.40;53.20;;;;;;5015541;28;20018;-85
2022/03/12 05:20:48;;;;;;;12.57;8.23;;;11.40;53.10;;;;;;5015128;28;20061;-84
2022/03/12 05:23:15;;;;;;;17.48;8.63;;;11.30;53.10;;;;;;5015523;28;20026;-87
2022/03/12 05:25:42;;;;;;;13.30;8.85;;;11.30;53.40;;;;;;5016052;28;20033;-87
2022/03/12 05:28:15;;;;;;;13.48;9.50;;;11.30;53.40;;;;;;5015749;28;20101;-87
2022/03/12 05:30:43;;;;;;;16.23;9.75;;;11.30;53.50;;;;;;5016927;28;20385;-86
2022/03/12 05:33:10;;;;;;;13.75;9.15;;;11.30;53.60;;;;;;5014970;28;20029;-86
2022/03/12 05:35:40;;;;;;;16.52;9.57;;;11.30;53.60;;;;;;5015743;28;20068;-87
2022/03/12 05:38:06;;;;;;;12.68;8.57;;;11.40;53.80;;;;;;5014749;28;20455;-86
2022/03/12 05:40:38;;;;;;;13.05;8.88;;;11.40;53.60;;;;;;5015439;28;20109;-85
2022/03/12 05:43:07;;;;;;;14.10;8.73;;;11.30;53.60;;;;;;5014148;28;20473;-85
2022/03/12 05:45:33;;;;;;;14.32;8.57;;;11.30;53.90;;;;;;5014909;28;20072;-86
2022/03/12 05:47:58;;;;;;;13.05;8.15;;;11.30;53.90;;;;;;5015814;28;20029;-85
2022/03/12 05:50:24;;;;;;;15.02;8.57;;;11.10;54.00;;;;;;5014964;28;20045;-87
2022/03/12 05:52:50;;;;;;;13.90;8.02;;;11.10;54.00;;;;;;5014139;28;20029;-86
2022/03/12 05:55:18;;;;;;;11.85;7.55;;;11.10;54.40;;;;;;5014681;28;20058;-87
2022/03/12 05:57:44;;;;;;;15.93;7.85;;;11.10;54.20;;;;;;5014177;28;20026;-86
2022/03/12 06:00:11;;;;;;;15.07;8.25;;;11.20;54.90;;;;;;5014755;28;20026;-86
2022/03/12 06:02:40;;;;;;;14.32;8.52;;;11.20;54.10;;;;;;5014109;28;20481;-86
2022/03/12 06:05:12;;;;;;;12.85;7.38;;;11.20;54.20;;;;;;5014815;28;20029;-86
2022/03/12 06:07:38;;;;;;;14.13;8.35;;;11.10;54.50;;;;;;5014125;28;20452;-86
2022/03/12 06:10:05;;;;;;;12.18;8.23;;;11.10;54.50;;;;;;5014296;28;20137;-86
2022/03/12 06:12:30;;;;;;;14.00;8.48;;;11.20;54.80;;;;;;5014455;28;20065;-86
2022/03/12 06:14:57;;;;;;;12.65;7.43;;;11.20;55.00;;;;;;5014706;28;20421;-86
2022/03/12 06:17:26;;;;;;;14.57;7.32;;;11.20;55.10;;;;;;5014460;28;20540;-85
2022/03/12 06:19:52;;;;;;;14.93;9.05;;;11.30;55.10;;;;;;5014508;28;20041;-86
2022/03/12 06:22:18;;;;;;;11.95;8.07;;;11.30;55.20;;;;;;5013735;28;20025;-87
2022/03/12 06:24:46;;;;;;;12.95;8.05;;;11.40;54.80;;;;;;5014601;28;20026;-87
2022/03/12 06:27:12;;;;;;;13.23;8.27;;;11.40;54.70;;;;;;5014453;28;20026;-86
2022/03/12 06:29:38;;;;;;;13.25;7.45;;;11.40;55.00;;;;;;5014230;28;20393;-87
2022/03/12 06:32:06;;;;;;;11.45;7.60;;;11.40;54.60;;;;;;5014260;28;20018;-87
2022/03/12 06:34:34;;;;;;;10.32;6.88;;;11.40;54.90;;;;;;5014653;28;20307;-87
2022/03/12 06:37:02;;;;;;;15.95;8.27;;;11.40;54.70;;;;;;5013913;28;20049;-86
2022/03/12 06:39:28;;;;;;;15.85;8.25;;;11.40;55.20;;;;;;5014190;28;20033;-87
2022/03/12 06:41:55;;;;;;;11.23;7.05;;;11.40;55.10;;;;;;5013885;28;20424;-87
2022/03/12 06:44:21;;;;;;;14.80;6.50;;;11.50;55.50;;;;;;5012078;28;20030;-87
2022/03/12 06:46:48;;;;;;;12.80;7.38;;;11.50;55.50;;;;;;5012357;28;20197;-86
2022/03/12 06:49:14;;;;;;;13.98;8.07;;;11.60;55.40;;;;;;5011151;28;20077;-86
2022/03/12 06:51:39;;;;;;;11.48;7.35;;;11.50;55.50;;;;;;5012823;28;20434;-87
2022/03/12 06:54:05;;;;;;;10.40;6.78;;;11.60;55.80;;;;;;5013139;28;20076;-87
2022/03/12 06:56:34;;;;;;;12.77;8.20;;;11.50;55.70;;;;;;5012199;28;20788;-87
2022/03/12 06:59:00;;;;;;;14.40;7.97;;;11.50;55.80;;;;;;5012436;28;20377;-87
2022/03/12 07:01:26;;;;;;;10.75;7.18;;;11.50;55.80;;;;;;5012092;28;20038;-86
2022/03/12 07:03:51;;;;;;;12.68;8.23;;;11.50;55.70;;;;;;5012526;28;20022;-86
2022/03/12 07:06:18;;;;;;;13.68;7.63;;;11.50;56.00;;;;;;5011758;28;20112;-87
2022/03/12 07:08:44;;;;;;;10.35;7.68;;;11.60;56.00;;;;;;5012873;28;20489;-83
2022/03/12 07:11:10;;;;;;;12.63;7.90;;;11.50;55.70;;;;;;5013097;28;20057;-88
2022/03/12 07:13:35;;;;;;;12.15;7.47;;;11.50;56.00;;;;;;5013880;28;20021;-81
2022/03/12 07:16:02;;;;;;;13.82;7.38;;;11.30;56.30;;;;;;5012895;28;20411;-82
2022/03/12 07:18:30;;;;;;;13.48;7.90;;;11.30;56.50;;;;;;5012278;28;20027;-82
2022/03/12 07:21:02;;;;;;;12.95;8.20;;;11.40;56.40;;;;;;5013185;28;20084;-82
2022/03/12 07:23:27;;;;;;;12.48;8.20;;;11.40;56.60;;;;;;5012592;28;20036;-82
2022/03/12 07:25:53;;;;;;;12.52;7.68;;;11.40;56.30;;;;;;5013181;28;20034;-83
2022/03/12 07:28:20;;;;;;;13.63;8.13;;;11.40;56.40;;;;;;5012926;28;20029;-83
2022/03/12 07:30:46;;;;;;;10.65;7.28;;;11.40;56.50;;;;;;5013359;28;20474;-83
2022/03/12 07:33:11;;;;;;;10.73;7.43;;;11.40;56.60;;;;;;5010582;28;20113;-83
2022/03/12 07:35:37;;;;;;;10.60;7.50;;;11.50;56.70;;;;;;5009722;28;20040;-83
2022/03/12 07:38:04;;;;;;;14.93;8.07;;;11.50;56.80;;;;;;5010745;28;20045;-83
2022/03/12 07:40:30;;;;;;;13.05;8.85;;;11.50;56.80;;;;;;5013012;28;20072;-82
2022/03/12 07:42:56;;;;;;;16.13;8.32;;;11.50;56.90;;;;;;5012437;28;20026;-84
2022/03/12 07:45:22;;;;;;;11.20;8.20;;;11.50;57.40;;;;;;5012596;28;20029;-83
2022/03/12 07:47:49;;;;;;;13.40;8.75;;;11.50;57.30;;;;;;5012254;28;20033;-82
2022/03/12 07:50:15;;;;;;;12.20;7.88;;;11.60;57.30;;;;;;5012301;28;20042;-80
2022/03/12 07:52:42;;;;;;;12.18;7.70;;;11.50;57.60;;;;;;5008432;28;20113;-82
2022/03/12 07:55:09;;;;;;;12.98;7.68;;;11.50;57.80;;;;;;5012300;28;20366;-81
2022/03/12 07:57:36;;;;;;;18.95;8.18;;;11.50;58.00;;;;;;5012374;28;20034;-78
2022/03/12 08:00:03;;;;;;;12.15;8.40;;;11.70;58.30;;;;;;5012428;28;20041;-78
2022/03/12 08:02:29;;;;;;;13.93;7.47;;;11.70;58.50;;;;;;5012139;28;20068;-78
2022/03/12 08:04:54;;;;;;;12.90;7.05;;;11.70;58.60;;;;;;5012433;28;20428;-80
2022/03/12 08:07:21;;;;;;;11.23;7.78;;;11.80;58.80;;;;;;4997198;28;20587;-80
2022/03/12 08:09:47;;;;;;;13.95;7.80;;;11.70;58.60;;;;;;4999916;28;20101;-81
2022/03/12 08:12:16;;;;;;;12.95;6.65;;;11.70;59.20;;;;;;5007352;28;20026;-82
2022/03/12 08:14:44;;;;;;;9.77;7.28;;;11.70;59.30;;;;;;5008689;28;20041;-82
2022/03/12 08:17:10;;;;;;;13.00;7.68;;;11.70;59.50;;;;;;4997228;28;20111;-81
2022/03/12 08:19:38;;;;;;;11.60;7.57;;;11.70;60.00;;;;;;4999217;28;20108;-86
2022/03/12 08:22:04;;;;;;;13.35;7.38;;;11.80;60.30;;;;;;5008496;28;20033;-85
2022/03/12 08:24:30;;;;;;;11.27;6.88;;;12.00;60.20;;;;;;5003200;28;20041;-83
2022/03/12 08:26:55;;;;;;;11.50;6.75;;;12.00;60.10;;;;;;5006339;28;20030;-86
2022/03/12 08:29:21;;;;;;;11.05;7.15;;;12.10;60.30;;;;;;4996517;28;20041;-86
2022/03/12 08:31:49;;;;;;;12.88;8.07;;;12.20;60.60;;;;;;4998933;28;20084;-81
2022/03/12 08:34:15;;;;;;;9.15;6.80;;;12.30;60.20;;;;;;4996921;28;20034;-85
2022/03/12 08:36:42;;;;;;;12.43;7.40;;;12.40;60.10;;;;;;4992575;28;20027;-84
2022/03/12 08:39:09;;;;;;;14.13;7.13;;;12.50;60.50;;;;;;5005376;28;20030;-83
2022/03/12 08:41:34;;;;;;;12.38;6.82;;;12.50;60.40;;;;;;5000549;28;20464;-80
2022/03/12 08:44:01;;;;;;;9.80;6.75;;;12.50;60.60;;;;;;5006686;28;20054;-82
2022/03/12 08:46:27;;;;;;;11.68;6.93;;;12.60;61.00;;;;;;5002843;28;20029;-81
2022/03/12 08:48:53;;;;;;;15.65;7.63;;;12.60;61.60;;;;;;5004453;28;20037;-81
2022/03/12 08:51:19;;;;;;;13.07;6.63;;;12.50;62.20;;;;;;5013164;28;20029;-80
2022/03/12 08:53:45;;;;;;;8.52;6.78;;;12.60;62.50;;;;;;5006008;28;20126;-79
2022/03/12 08:56:11;;;;;;;9.13;5.80;;;12.70;64.10;;;;;;5008291;28;20109;-81
2022/03/12 08:58:37;;;;;;;7.30;5.43;;;12.70;66.20;;;;;;5009301;28;20473;-82
2022/03/12 09:01:06;;;;;;;9.10;5.30;;;12.70;67.50;;;;;;4999881;28;20061;-82
2022/03/12 09:03:32;;;;;;;7.65;5.03;;;12.80;68.30;;;;;;5013335;28;20026;-82
2022/03/12 09:05:58;;;;;;;6.90;5.22;;;12.80;68.90;;;;;;4997598;28;20409;-79
2022/03/12 09:08:24;;;;;;;8.57;5.47;;;12.90;69.30;;;;;;4997794;28;20026;-81
2022/03/12 09:10:50;;;;;;;8.02;5.85;;;12.90;69.20;;;;;;5003016;28;20028;-82
2022/03/12 09:13:18;;;;;;;8.82;5.30;;;12.90;69.40;;;;;;5010719;28;20474;-81
2022/03/12 09:15:44;;;;;;;10.43;6.38;;;12.90;69.40;;;;;;5012046;28;20543;-81
2022/03/12 09:18:11;;;;;;;7.60;5.40;;;13.00;69.50;;;;;;5008519;28;20031;-83
2022/03/12 09:20:44;;;;;;;7.72;5.82;;;13.00;69.60;;;;;;5005675;28;20034;-80
2022/03/12 09:23:10;;;;;;;8.38;5.60;;;13.10;70.00;;;;;;4998416;28;20033;-80
2022/03/12 09:25:36;;;;;;;8.82;6.40;;;13.10;69.90;;;;;;5005965;28;20527;-79
2022/03/12 09:28:02;;;;;;;7.15;5.82;;;13.10;70.30;;;;;;5003948;28;20123;-78
2022/03/12 09:30:28;;;;;;;6.90;5.20;;;13.20;70.40;;;;;;5009217;28;20046;-82
2022/03/12 09:32:54;;;;;;;6.70;5.38;;;13.30;70.10;;;;;;5011227;28;20041;-79
2022/03/12 09:35:20;;;;;;;7.97;5.47;;;13.40;70.20;;;;;;5008419;28;20027;-77
2022/03/12 09:37:47;;;;;;;8.43;5.15;;;13.40;70.10;;;;;;5008587;28;20026;-78
2022/03/12 09:40:15;;;;;;;9.18;5.88;;;13.50;70.20;;;;;;5008406;28;20114;-83
2022/03/12 09:42:44;;;;;;;7.40;5.18;;;13.40;70.30;;;;;;5004915;28;20053;-77
2022/03/12 09:45:11;;;;;;;10.18;5.60;;;13.40;70.20;;;;;;5008031;28;20029;-79
2022/03/12 09:47:37;;;;;;;9.75;5.40;;;13.50;70.40;;;;;;4995855;28;20028;-78
2022/03/12 09:50:04;;;;;;;7.00;4.80;;;13.40;70.30;;;;;;4998573;28;20026;-79
2022/03/12 09:52:30;;;;;;;8.32;5.40;;;13.50;70.90;;;;;;4997949;28;20030;-77
2022/03/12 09:54:56;;;;;;;7.95;5.25;;;13.50;70.60;;;;;;5003991;28;20027;-78
2022/03/12 09:57:21;;;;;;;8.50;5.35;;;13.50;71.30;;;;;;5001655;28;20355;-78
2022/03/12 09:59:48;;;;;;;8.65;5.07;;;13.50;71.20;;;;;;5006039;28;20041;-78
2022/03/12 10:02:14;;;;;;;7.15;4.38;;;13.60;71.20;;;;;;5002649;28;20026;-77
2022/03/12 10:04:39;;;;;;;6.47;4.38;;;13.70;70.90;;;;;;5011590;28;20033;-77
2022/03/12 10:07:09;;;;;;;6.90;4.43;;;13.70;71.00;;;;;;5011792;28;20177;-77
2022/03/12 10:09:41;;;;;;;5.30;4.40;;;13.80;70.90;;;;;;5014273;28;20081;-82
2022/03/12 10:12:07;;;;;;;7.00;4.32;;;13.80;70.70;;;;;;5014523;28;20041;-77
2022/03/12 10:14:36;;;;;;;9.15;5.55;;;13.80;70.60;;;;;;5013342;28;20033;-77
2022/03/12 10:17:04;;;;;;;5.65;4.15;;;13.80;70.60;;;;;;5013623;28;20022;-78
2022/03/12 10:19:31;;;;;;;5.95;4.13;;;13.80;70.50;;;;;;5013054;28;20037;-77
2022/03/12 10:21:57;;;;;;;5.65;4.38;;;13.90;70.20;;;;;;5013142;28;20381;-77
2022/03/12 10:24:24;;;;;;;9.55;4.63;;;13.90;70.20;;;;;;5016149;28;20036;-79
2022/03/12 10:26:50;;;;;;;5.78;4.07;;;13.90;70.60;;;;;;5012870;28;20030;-77
2022/03/12 10:29:16;;;;;;;7.28;4.57;;;14.00;70.50;;;;;;5014115;28;20417;-78
2022/03/12 10:31:42;;;;;;;7.43;4.30;;;14.10;70.20;;;;;;5013618;28;20101;-78
2022/03/12 10:34:24;;;;;;;5.05;3.60;;;14.10;70.10;;;;;;5013203;28;20038;-77
2022/03/12 10:36:55;;;;;;;9.60;4.20;;;14.10;69.80;;;;;;5012027;28;20488;-78
2022/03/12 10:39:32;;;;;;;5.90;3.70;;;14.20;70.20;;;;;;5013564;28;20327;-77
2022/03/12 10:42:07;;;;;;;8.57;3.17;;;14.20;70.00;;;;;;5013030;28;20121;-80
2022/03/12 10:44:37;;;;;;;5.45;3.08;;;14.20;69.50;;;;;;5011836;28;20054;-79
2022/03/12 10:47:23;;;;;;;7.57;3.33;;;14.10;69.10;;;;;;5012790;28;20104;-80
2022/03/12 10:49:58;;;;;;;9.23;4.25;;;14.10;69.20;;;;;;5013276;28;20074;-80
2022/03/12 10:52:27;;;;;;;10.15;4.03;;;14.10;69.40;;;;;;5012225;28;20574;-79
2022/03/12 10:54:53;;;;;;;6.95;3.08;;;14.10;69.30;;;;;;5011808;28;20030;-79
2022/03/12 10:57:19;;;;;;;10.05;3.20;;;14.10;68.80;;;;;;5013230;28;20029;-80
2022/03/12 10:59:45;;;;;;;6.93;3.10;;;14.10;67.80;;;;;;5013449;28;20029;-80
2022/03/12 11:02:11;;;;;;;5.75;2.60;;;14.10;67.70;;;;;;5013436;28;20109;-79
2022/03/12 11:04:38;;;;;;;6.32;2.42;;;14.10;67.70;;;;;;5013195;28;20044;-80
2022/03/12 11:07:24;;;;;;;8.68;3.08;;;14.10;67.40;;;;;;5012697;28;20104;-80
2022/03/12 11:09:52;;;;;;;7.32;2.67;;;14.00;67.40;;;;;;5013308;28;20038;-78
2022/03/12 11:12:31;;;;;;;7.20;2.85;;;13.90;68.20;;;;;;5013254;28;20026;-79
2022/03/12 11:15:11;;;;;;;6.90;3.03;;;13.90;68.20;;;;;;5013248;28;20037;-83
2022/03/12 11:17:49;;;;;;;7.60;2.70;;;14.00;68.20;;;;;;5012908;28;20022;-80
2022/03/12 11:20:24;;;;;;;8.50;3.70;;;14.10;68.70;;;;;;5012681;28;20469;-74
2022/03/12 11:23:16;;;;;;;7.18;3.22;;;14.20;68.20;;;;;;5010288;28;20022;-78
2022/03/12 11:25:54;;;;;;;7.20;3.20;;;14.30;68.10;;;;;;5006019;28;20039;-78
2022/03/12 11:28:20;;;;;;;5.85;2.95;;;14.20;67.10;;;;;;5012449;28;20269;-78
2022/03/12 11:30:46;;;;;;;5.43;3.17;;;14.20;67.20;;;;;;5013192;28;20037;-77
2022/03/12 11:33:12;;;;;;;6.20;2.97;;;14.20;67.40;;;;;;5012848;28;20473;-80
2022/03/12 11:35:44;;;;;;;8.35;3.33;;;14.30;67.60;;;;;;5012727;28;20477;-78
2022/03/12 11:38:18;;;;;;;7.55;3.70;;;14.40;67.90;;;;;;5012232;28;20507;-81
2022/03/12 11:40:49;;;;;;;9.43;3.50;;;14.40;67.80;;;;;;5012816;28;20552;-79
2022/03/12 11:43:24;;;;;;;6.07;3.47;;;14.50;67.10;;;;;;5012285;28;20033;-78
2022/03/12 11:45:49;;;;;;;8.50;2.92;;;14.60;67.20;;;;;;5012451;28;20481;-80
2022/03/12 11:48:15;;;;;;;6.57;3.10;;;14.80;66.90;;;;;;5012586;28;20129;-79
2022/03/12 11:50:41;;;;;;;6.35;3.30;;;14.90;66.00;;;;;;5012534;28;20037;-78
2022/03/12 11:53:07;;;;;;;6.80;2.78;;;15.10;65.10;;;;;;5012567;28;20029;-76
2022/03/12 11:55:34;;;;;;;7.70;3.47;;;15.20;65.10;;;;;;5012711;28;20487;-76
2022/03/12 11:57:59;;;;;;;7.15;3.03;;;15.40;64.90;;;;;;5012040;28;20052;-76
2022/03/12 12:00:28;;;;;;;4.80;3.15;;;15.40;64.80;;;;;;5012750;28;20478;-76
2022/03/12 12:02:55;;;;;;;7.10;3.50;;;15.40;64.90;;;;;;5012059;28;20083;-76
2022/03/12 12:05:25;;;;;;;7.32;3.22;;;15.40;64.40;;;;;;5011497;28;20050;-75
2022/03/12 12:07:52;;;;;;;8.00;2.72;;;15.40;64.20;;;;;;5012086;28;20038;-78
2022/03/12 12:10:29;;;;;;;7.90;3.40;;;15.30;64.00;;;;;;5012006;28;20114;-77
2022/03/12 12:12:58;;;;;;;8.30;4.20;;;15.30;64.60;;;;;;5011424;28;20401;-75
2022/03/12 12:15:34;;;;;;;7.60;3.75;;;15.30;65.10;;;;;;5012418;28;20034;-77
2022/03/12 12:18:02;;;;;;;9.52;3.97;;;15.40;65.30;;;;;;5011827;28;20125;-78
2022/03/12 12:20:30;;;;;;;6.70;3.70;;;15.40;65.40;;;;;;5012001;28;20033;-79
2022/03/12 12:22:57;;;;;;;6.90;3.47;;;15.40;65.00;;;;;;5011202;28;20029;-78
2022/03/12 12:25:25;;;;;;;4.80;3.65;;;15.40;65.10;;;;;;5009557;28;20234;-81
2022/03/12 12:27:53;;;;;;;7.25;4.13;;;15.50;65.50;;;;;;5011004;28;20034;-81
2022/03/12 12:30:24;;;;;;;7.97;3.92;;;15.60;65.30;;;;;;5011795;28;20033;-84
2022/03/12 12:32:51;;;;;;;9.50;4.20;;;15.60;65.20;;;;;;5011969;28;20065;-79
2022/03/12 12:35:23;;;;;;;6.78;4.07;;;15.70;64.90;;;;;;5011513;28;20037;-79
2022/03/12 12:37:59;;;;;;;7.43;4.00;;;15.70;65.30;;;;;;5011290;28;20041;-81
2022/03/12 12:40:35;;;;;;;9.55;3.78;;;15.80;65.00;;;;;;5011061;28;20033;-78
2022/03/12 12:43:09;;;;;;;7.55;3.75;;;15.70;64.70;;;;;;5011517;28;20493;-78
2022/03/12 12:45:42;;;;;;;9.20;3.75;;;15.70;64.60;;;;;;5005798;28;20037;-77
2022/03/12 12:48:19;;;;;;;7.07;3.65;;;15.80;64.50;;;;;;5010914;28;20034;-78